Time;durP1;ratioP1;P1;durP2;ratioP2;P2;SDS_P1;SDS_P2;PMS_P1;PMS_P2;Temp;Humidity;BMP_temperature;BMP_pressure;BME280_temperature;BME280_humidity;BME280_pressure;Samples;Min_cycle;Max_cycle;Signal;HPM_P1;HPM_P2
2021/10/28 00:13:33;;;;;;;9.50;6.63;;;7.00;99.90;;;;;;5088140;28;20259;-75
2021/10/28 00:16:23;;;;;;;8.90;6.97;;;7.00;99.90;;;;;;5088014;28;20196;-75
2021/10/28 00:19:09;;;;;;;11.13;7.63;;;7.00;99.90;;;;;;5073821;28;20208;-74
2021/10/28 00:21:56;;;;;;;9.13;6.50;;;6.90;99.90;;;;;;5074343;28;20346;-74
2021/10/28 00:24:41;;;;;;;10.45;6.72;;;6.90;99.90;;;;;;5074534;28;20197;-76
2021/10/28 00:27:29;;;;;;;10.27;6.60;;;6.90;99.90;;;;;;5096410;28;20231;-75
2021/10/28 00:30:17;;;;;;;8.00;6.47;;;6.90;99.90;;;;;;5094208;28;20231;-75
2021/10/28 00:33:03;;;;;;;9.00;6.30;;;6.80;99.90;;;;;;5094514;28;20309;-75
2021/10/28 00:35:48;;;;;;;9.20;5.95;;;6.70;99.90;;;;;;5094522;28;20338;-75
2021/10/28 00:38:34;;;;;;;6.20;5.25;;;6.60;99.90;;;;;;5093983;28;20321;-75
2021/10/28 00:41:22;;;;;;;6.20;4.78;;;6.60;99.90;;;;;;5094284;28;20239;-75
2021/10/28 00:44:10;;;;;;;7.10;5.35;;;6.60;99.90;;;;;;5094418;28;20206;-75
2021/10/28 00:46:56;;;;;;;5.65;4.65;;;6.60;99.90;;;;;;5094206;28;20684;-75
2021/10/28 00:49:42;;;;;;;7.05;5.15;;;6.60;99.90;;;;;;5093851;28;20200;-75
2021/10/28 00:52:28;;;;;;;5.60;4.97;;;6.60;99.90;;;;;;5094098;28;20301;-75
2021/10/28 00:55:14;;;;;;;9.27;4.97;;;6.70;99.90;;;;;;5084218;28;20197;-75
2021/10/28 00:58:00;;;;;;;7.03;5.23;;;6.70;99.90;;;;;;5087474;28;20329;-73
2021/10/28 01:00:47;;;;;;;7.40;5.45;;;6.70;99.90;;;;;;5073814;28;20815;-74
2021/10/28 01:03:35;;;;;;;7.68;4.90;;;6.70;99.90;;;;;;5073731;28;20204;-75
2021/10/28 01:06:20;;;;;;;7.43;5.30;;;6.70;99.90;;;;;;5072195;28;20319;-75
2021/10/28 01:09:07;;;;;;;12.27;5.20;;;6.70;99.90;;;;;;5073130;28;20426;-75
2021/10/28 01:11:53;;;;;;;7.50;5.25;;;6.70;99.90;;;;;;5073414;28;20306;-75
2021/10/28 01:14:42;;;;;;;8.10;5.03;;;6.80;99.90;;;;;;5073510;28;20330;-75
2021/10/28 01:17:32;;;;;;;7.07;5.32;;;6.70;99.90;;;;;;5091175;28;20200;-74
2021/10/28 01:20:19;;;;;;;8.43;4.88;;;6.60;99.90;;;;;;5093212;28;20732;-75
2021/10/28 01:23:05;;;;;;;6.15;4.90;;;6.50;99.90;;;;;;5093546;28;20203;-75
2021/10/28 01:25:53;;;;;;;10.23;4.55;;;6.60;99.90;;;;;;5088359;28;20256;-75
2021/10/28 01:28:40;;;;;;;8.18;4.32;;;6.50;99.90;;;;;;5092406;28;21535;-74
2021/10/28 01:31:28;;;;;;;8.00;5.10;;;6.40;99.90;;;;;;5093378;28;20224;-75
2021/10/28 01:34:17;;;;;;;4.50;3.60;;;6.50;99.90;;;;;;5093179;28;20422;-76
2021/10/28 01:37:04;;;;;;;9.07;4.43;;;6.50;99.90;;;;;;5073104;28;20193;-75
2021/10/28 01:39:50;;;;;;;6.75;4.40;;;6.50;99.90;;;;;;5072393;28;20200;-75
2021/10/28 01:42:36;;;;;;;5.70;4.10;;;6.50;99.90;;;;;;5072913;28;20205;-75
2021/10/28 01:45:22;;;;;;;20.75;6.15;;;6.50;99.90;;;;;;5072826;28;20299;-75
2021/10/28 01:48:08;;;;;;;7.90;4.78;;;6.50;99.90;;;;;;5072562;28;20270;-75
2021/10/28 01:50:55;;;;;;;5.57;4.60;;;6.50;99.90;;;;;;5072543;28;20631;-75
2021/10/28 01:53:43;;;;;;;6.57;4.47;;;6.50;99.90;;;;;;5072841;28;20419;-75
2021/10/28 01:56:29;;;;;;;9.75;4.30;;;6.50;99.90;;;;;;5086450;28;20260;-75
2021/10/28 01:59:14;;;;;;;6.60;4.80;;;6.50;99.90;;;;;;5092427;28;20278;-75
2021/10/28 02:02:00;;;;;;;7.43;4.10;;;6.50;99.90;;;;;;5092838;28;20253;-75
2021/10/28 02:04:46;;;;;;;7.07;4.63;;;6.30;99.90;;;;;;5092797;28;20284;-75
2021/10/28 02:07:31;;;;;;;9.80;5.15;;;6.30;99.90;;;;;;5091317;28;20223;-75
2021/10/28 02:10:20;;;;;;;7.32;5.28;;;6.20;99.90;;;;;;5092218;28;20226;-75
2021/10/28 02:13:05;;;;;;;6.70;4.85;;;6.20;99.90;;;;;;5092750;28;20241;-75
2021/10/28 02:15:51;;;;;;;5.65;4.45;;;6.20;99.90;;;;;;5092841;28;20207;-75
2021/10/28 02:18:36;;;;;;;8.23;4.90;;;6.00;99.90;;;;;;5092163;28;20196;-75
2021/10/28 02:21:22;;;;;;;7.53;5.20;;;6.00;99.90;;;;;;5092338;28;20362;-75
2021/10/28 02:24:08;;;;;;;16.05;5.20;;;6.10;99.90;;;;;;5092483;28;20207;-74
2021/10/28 02:26:55;;;;;;;7.55;5.57;;;6.20;99.90;;;;;;5098497;28;20246;-75
2021/10/28 02:29:41;;;;;;;7.00;4.93;;;6.20;99.90;;;;;;5091930;28;20202;-75
2021/10/28 02:32:27;;;;;;;10.48;5.47;;;6.20;99.90;;;;;;5092309;28;20203;-75
2021/10/28 02:35:15;;;;;;;7.50;4.95;;;6.20;99.90;;;;;;5092252;28;20684;-75
2021/10/28 02:38:01;;;;;;;8.07;5.05;;;6.10;99.90;;;;;;5091854;28;20200;-74
2021/10/28 02:40:46;;;;;;;12.70;5.50;;;6.10;99.90;;;;;;5091871;28;20273;-76
2021/10/28 02:43:33;;;;;;;10.65;6.15;;;6.00;99.90;;;;;;5092155;28;20207;-75
2021/10/28 02:46:18;;;;;;;5.95;4.70;;;6.00;99.90;;;;;;5092188;28;20199;-74
2021/10/28 02:49:04;;;;;;;9.90;5.65;;;6.00;99.90;;;;;;5091902;28;20556;-75
2021/10/28 02:51:50;;;;;;;9.52;6.05;;;6.00;99.90;;;;;;5086997;28;20327;-75
2021/10/28 02:54:37;;;;;;;8.65;6.03;;;6.00;99.90;;;;;;5071777;28;20599;-75
2021/10/28 02:57:23;;;;;;;10.30;5.80;;;6.00;99.90;;;;;;5093264;28;20681;-75
2021/10/28 03:00:12;;;;;;;8.20;5.88;;;6.00;99.90;;;;;;5091474;28;20349;-74
2021/10/28 03:02:57;;;;;;;10.38;6.03;;;6.00;99.90;;;;;;5091834;28;20842;-75
2021/10/28 03:05:43;;;;;;;6.60;5.20;;;6.00;99.90;;;;;;5090663;28;20573;-75
2021/10/28 03:08:29;;;;;;;21.77;6.70;;;6.10;99.90;;;;;;5091420;28;20272;-75
2021/10/28 03:11:15;;;;;;;16.92;6.50;;;6.00;99.90;;;;;;5091758;28;20327;-75
2021/10/28 03:14:01;;;;;;;10.03;6.70;;;6.00;99.90;;;;;;5070791;28;20224;-75
2021/10/28 03:16:53;;;;;;;19.58;5.55;;;6.00;99.90;;;;;;5070525;28;20427;-75
2021/10/28 03:19:46;;;;;;;8.95;5.78;;;6.00;99.90;;;;;;5071030;28;20200;-75
2021/10/28 03:25:38;;;;;;;7.25;5.20;;;5.90;99.90;;;;;;5072002;28;20184;-75
2021/10/28 03:28:24;;;;;;;6.20;5.00;;;5.90;99.90;;;;;;5093906;28;20224;-74
2021/10/28 03:31:10;;;;;;;7.03;5.28;;;5.90;99.90;;;;;;5091647;28;20219;-76
2021/10/28 03:33:57;;;;;;;9.80;5.50;;;5.90;99.90;;;;;;5091589;28;20202;-75
2021/10/28 03:36:48;;;;;;;6.55;5.25;;;5.80;99.90;;;;;;5091470;28;20257;-75
2021/10/28 03:58:25;;;;;;;3.50;3.10;;;5.80;99.90;;;;;;5001279;28;20234;-75
2021/10/28 04:16:49;;;;;;;7.47;5.65;;;5.50;99.90;;;;;;5089048;28;20679;-75
2021/10/28 04:19:53;;;;;;;7.30;5.30;;;5.60;99.90;;;;;;5088790;28;20583;-75
2021/10/28 04:28:55;;;;;;;6.38;4.78;;;5.60;99.90;;;;;;5088410;28;20187;-75
2021/10/28 04:31:40;;;;;;;7.35;5.65;;;5.60;99.90;;;;;;5088802;28;20724;-75
2021/10/28 04:34:26;;;;;;;9.70;5.70;;;5.60;99.90;;;;;;5088928;28;20207;-75
2021/10/28 04:37:12;;;;;;;5.55;4.30;;;5.50;99.90;;;;;;5088548;28;20269;-75
2021/10/28 04:39:59;;;;;;;5.68;4.40;;;5.40;99.90;;;;;;5088239;28;20273;-74
2021/10/28 04:42:45;;;;;;;10.35;7.95;;;5.50;99.90;;;;;;5088712;28;20204;-75
2021/10/28 04:45:30;;;;;;;7.10;6.10;;;5.50;99.90;;;;;;5088457;28;20301;-75
2021/10/28 04:48:16;;;;;;;6.40;5.60;;;5.50;99.90;;;;;;5088337;28;20211;-75
2021/10/28 04:51:02;;;;;;;5.47;4.78;;;5.40;99.90;;;;;;5068696;28;20220;-74
2021/10/28 04:53:48;;;;;;;6.63;4.60;;;5.50;99.90;;;;;;5068042;28;20200;-75
2021/10/28 04:56:35;;;;;;;13.25;4.80;;;5.50;99.90;;;;;;5083271;28;20424;-75
2021/10/28 04:59:20;;;;;;;8.43;4.50;;;5.50;99.90;;;;;;5087805;28;20568;-74
2021/10/28 05:02:07;;;;;;;5.50;4.90;;;5.50;99.90;;;;;;5076768;28;20293;-74
2021/10/28 05:04:52;;;;;;;7.78;4.88;;;5.50;99.90;;;;;;5086622;28;20656;-75
2021/10/28 05:07:38;;;;;;;7.57;5.20;;;5.40;99.90;;;;;;5087258;28;20283;-75
2021/10/28 05:10:23;;;;;;;5.38;4.60;;;5.30;99.90;;;;;;5087656;28;20224;-75
2021/10/28 05:13:12;;;;;;;10.63;6.45;;;5.30;99.90;;;;;;5088164;28;20207;-75
2021/10/28 05:15:59;;;;;;;9.30;5.32;;;5.20;99.90;;;;;;5088072;28;20200;-75
2021/10/28 05:18:45;;;;;;;6.85;4.90;;;5.30;99.90;;;;;;5073459;28;20327;-75
2021/10/28 05:21:32;;;;;;;5.85;4.88;;;5.20;99.90;;;;;;5074346;28;20224;-75
2021/10/28 05:24:17;;;;;;;8.23;5.25;;;5.20;99.90;;;;;;5074372;28;20576;-74
2021/10/28 05:27:04;;;;;;;7.18;5.60;;;5.20;99.90;;;;;;5080717;28;20248;-75
2021/10/28 05:29:51;;;;;;;13.30;7.35;;;5.00;99.90;;;;;;5065949;28;20203;-75
2021/10/28 05:32:37;;;;;;;8.30;7.50;;;5.00;99.90;;;;;;5074237;28;20673;-75
2021/10/28 05:35:22;;;;;;;11.05;7.35;;;4.90;99.90;;;;;;5074076;28;20207;-75
2021/10/28 05:38:08;;;;;;;9.85;8.18;;;4.80;99.90;;;;;;5073999;28;20270;-75
2021/10/28 05:40:54;;;;;;;13.35;9.73;;;4.80;99.90;;;;;;5073970;28;20266;-74
2021/10/28 05:43:39;;;;;;;11.80;8.93;;;4.90;99.90;;;;;;5074097;28;20330;-75
2021/10/28 05:46:26;;;;;;;12.40;9.40;;;5.00;99.90;;;;;;5073903;28;20220;-75
2021/10/28 05:49:12;;;;;;;11.90;8.85;;;5.00;99.90;;;;;;5055515;28;20781;-75
2021/10/28 05:51:57;;;;;;;9.65;8.57;;;4.90;99.90;;;;;;5053667;28;20220;-75
2021/10/28 05:54:44;;;;;;;16.80;9.43;;;4.90;99.90;;;;;;5054011;28;20204;-75
2021/10/28 05:57:31;;;;;;;12.60;9.85;;;4.90;99.90;;;;;;5076287;28;20204;-75
2021/10/28 06:00:19;;;;;;;11.88;8.35;;;4.90;99.90;;;;;;5073089;28;20224;-74
2021/10/28 06:03:07;;;;;;;13.52;8.52;;;5.00;99.90;;;;;;5073774;28;20200;-75
2021/10/28 06:05:52;;;;;;;11.60;8.73;;;4.80;99.90;;;;;;5073667;28;20582;-75
2021/10/28 06:08:38;;;;;;;11.13;8.18;;;4.90;99.90;;;;;;5073163;28;20290;-75
2021/10/28 06:11:23;;;;;;;11.25;7.88;;;4.90;99.90;;;;;;5073271;28;20231;-75
2021/10/28 06:14:09;;;;;;;16.45;8.32;;;4.90;99.90;;;;;;5073883;28;20547;-76
2021/10/28 06:16:59;;;;;;;10.23;7.30;;;4.90;99.90;;;;;;5073396;28;20558;-74
2021/10/28 06:19:46;;;;;;;10.95;7.40;;;4.90;99.90;;;;;;5073025;28;20728;-74
2021/10/28 06:22:32;;;;;;;12.52;7.20;;;5.00;99.90;;;;;;5073417;28;20287;-75
2021/10/28 06:25:18;;;;;;;8.98;7.40;;;4.90;99.90;;;;;;5073298;28;20204;-74
2021/10/28 06:28:05;;;;;;;10.65;7.70;;;4.90;99.90;;;;;;5066930;28;20200;-75
2021/10/28 06:30:51;;;;;;;9.45;6.95;;;4.90;99.90;;;;;;5052809;28;20216;-74
2021/10/28 06:33:38;;;;;;;7.45;6.13;;;4.80;99.90;;;;;;5053025;28;20205;-75
2021/10/28 06:36:26;;;;;;;10.50;6.35;;;4.80;99.90;;;;;;5053272;28;20593;-75
2021/10/28 06:39:12;;;;;;;8.25;5.80;;;4.90;99.90;;;;;;5052952;28;20209;-75
2021/10/28 06:41:57;;;;;;;8.23;6.05;;;4.80;99.90;;;;;;5052685;28;20220;-74
2021/10/28 06:44:44;;;;;;;6.80;5.50;;;4.90;99.90;;;;;;5052988;28;20201;-75
2021/10/28 06:47:29;;;;;;;8.18;5.97;;;5.00;99.90;;;;;;5052588;28;20225;-73
2021/10/28 06:50:19;;;;;;;8.60;6.88;;;5.00;99.90;;;;;;5049045;28;20252;-75
2021/10/28 06:53:10;;;;;;;9.23;6.10;;;5.10;99.90;;;;;;5051139;28;20197;-75
2021/10/28 06:56:02;;;;;;;9.73;5.40;;;5.10;99.90;;;;;;5058911;28;20386;-75
2021/10/28 07:04:57;;;;;;;6.13;5.45;;;5.20;99.90;;;;;;5072120;28;20200;-73
2021/10/28 07:07:43;;;;;;;6.90;6.03;;;5.20;99.90;;;;;;5071653;28;20239;-75
2021/10/28 07:10:31;;;;;;;8.23;6.50;;;5.20;99.90;;;;;;5072138;28;20721;-75
2021/10/28 07:13:22;;;;;;;9.90;6.82;;;5.20;99.90;;;;;;5072346;28;20208;-75
2021/10/28 07:16:19;;;;;;;9.48;6.72;;;5.20;99.90;;;;;;5072294;28;20256;-75
2021/10/28 07:19:15;;;;;;;7.40;6.20;;;5.10;99.90;;;;;;5071714;28;20204;-75
2021/10/28 07:22:21;;;;;;;8.35;6.45;;;5.20;99.90;;;;;;5072150;28;20224;-75
2021/10/28 07:25:22;;;;;;;11.00;7.35;;;5.30;99.90;;;;;;5072112;28;20203;-75
2021/10/28 07:28:39;;;;;;;9.48;6.45;;;5.30;99.90;;;;;;5066451;28;20208;-75
2021/10/28 07:31:35;;;;;;;10.98;7.40;;;5.30;99.90;;;;;;5051976;28;20220;-75
2021/10/28 07:34:29;;;;;;;12.65;8.45;;;5.50;99.90;;;;;;5051919;28;20682;-75
2021/10/28 07:59:00;;;;;;;16.70;9.60;;;6.00;99.90;;;;;;5072576;28;20620;-75
2021/10/28 08:17:36;;;;;;;20.92;11.05;;;6.70;99.90;;;;;;5089476;28;20234;-75
2021/10/28 08:20:39;;;;;;;13.85;10.32;;;6.80;99.90;;;;;;5088667;28;20309;-75
2021/10/28 08:23:35;;;;;;;15.50;11.73;;;6.80;99.90;;;;;;5089115;28;20330;-75
2021/10/28 08:29:30;;;;;;;19.42;11.02;;;7.00;99.90;;;;;;5088480;28;20680;-74
2021/10/28 08:32:16;;;;;;;25.50;16.10;;;7.10;99.90;;;;;;5088887;28;20238;-75
2021/10/28 08:35:03;;;;;;;20.48;12.80;;;7.30;99.90;;;;;;5088956;28;20445;-75
2021/10/28 08:37:51;;;;;;;21.25;12.52;;;7.40;99.90;;;;;;5088756;28;20238;-75
2021/10/28 08:40:38;;;;;;;16.20;12.00;;;7.60;99.90;;;;;;5067945;28;20224;-75
2021/10/28 08:43:30;;;;;;;24.85;16.00;;;7.80;99.90;;;;;;5067456;28;20274;-75
2021/10/28 08:46:16;;;;;;;25.92;17.48;;;8.00;99.90;;;;;;5068369;28;20240;-75
2021/10/28 08:49:05;;;;;;;27.60;19.03;;;8.20;99.90;;;;;;5068187;28;20566;-75
2021/10/28 08:52:03;;;;;;;32.03;19.10;;;8.30;99.90;;;;;;5068169;28;20446;-75
2021/10/28 08:55:00;;;;;;;31.70;20.17;;;8.40;99.90;;;;;;5068115;28;20442;-74
2021/10/28 09:23:53;;;;;;;32.37;20.30;;;9.20;99.90;;;;;;5053646;28;20475;-75
2021/10/28 09:25:59;;;;;;;29.00;19.17;;;9.50;99.90;;;;;;5059061;28;20415;-75
2021/10/28 09:28:51;;;;;;;28.60;19.43;;;9.60;99.90;;;;;;5073835;28;20414;-75
2021/10/28 09:31:40;;;;;;;25.97;17.83;;;9.60;99.90;;;;;;5074410;28;20497;-75
2021/10/28 09:34:36;;;;;;;25.53;17.93;;;9.70;99.90;;;;;;5074334;28;20418;-76
2021/10/28 09:43:41;;;;;;;23.33;16.43;;;10.40;99.90;;;;;;5057820;28;20437;-75
2021/10/28 09:46:40;;;;;;;21.10;15.60;;;10.70;99.90;;;;;;5053894;28;20987;-74
2021/10/28 09:52:30;;;;;;;21.83;15.40;;;11.00;99.90;;;;;;5054332;28;20442;-76
2021/10/28 09:58:27;;;;;;;20.20;15.10;;;11.40;99.90;;;;;;5069892;28;20411;-75
2021/10/28 10:01:36;;;;;;;24.63;16.27;;;11.40;99.90;;;;;;5053597;28;21080;-75
2021/10/28 10:04:22;;;;;;;24.87;16.33;;;11.40;99.90;;;;;;5053686;28;20444;-75
2021/10/28 10:07:09;;;;;;;22.47;15.77;;;11.40;99.90;;;;;;5052481;28;20601;-75
2021/10/28 10:09:56;;;;;;;19.37;14.63;;;11.30;99.90;;;;;;5053140;28;20423;-76
2021/10/28 10:12:44;;;;;;;19.33;14.80;;;11.30;99.90;;;;;;5053300;28;20435;-75
2021/10/28 10:15:31;;;;;;;20.70;15.17;;;11.30;99.90;;;;;;5053516;28;20415;-76
2021/10/28 10:18:22;;;;;;;19.53;14.40;;;11.40;99.90;;;;;;5053013;28;20423;-75
2021/10/28 10:21:13;;;;;;;24.80;16.60;;;11.40;99.90;;;;;;5053221;28;20443;-75
2021/10/28 10:24:14;;;;;;;35.50;24.03;;;11.50;99.90;;;;;;5053500;28;20412;-75
2021/10/28 11:06:03;;;;;;;26.60;20.03;;;11.30;99.90;;;;;;5052452;28;20415;-70
2021/10/28 12:01:55;;;;;;;43.40;28.87;;;11.50;99.90;;;;;;5011911;28;20488;-71
2021/10/28 12:20:34;;;;;;;40.13;23.30;;;12.10;99.90;;;;;;5010081;28;20468;-71
2021/10/28 12:45:31;;;;;;;32.27;21.33;;;12.90;99.90;;;;;;5031408;28;20383;-71
2021/10/28 12:55:07;;;;;;;30.43;19.80;;;13.80;99.90;;;;;;5034740;28;20407;-71
2021/10/28 13:04:26;;;;;;;29.30;19.37;;;14.70;99.90;;;;;;5015086;28;20445;-71
2021/10/28 13:07:37;;;;;;;29.37;19.50;;;14.70;99.90;;;;;;5013747;28;20487;-71
2021/10/28 13:35:16;;;;;;;25.90;17.90;;;15.80;99.90;;;;;;5034412;28;20452;-71
2021/10/28 13:50:26;;;;;;;29.80;17.90;;;16.10;99.90;;;;;;5033679;28;20409;-71
2021/10/28 13:59:35;;;;;;;28.17;15.67;;;15.40;99.90;;;;;;5037735;28;20556;-71
2021/10/28 15:28:16;;;;;;;22.20;14.30;;;11.20;99.90;;;;;;5062392;28;20558;-71
2021/10/28 15:37:14;;;;;;;23.77;14.97;;;11.10;99.90;;;;;;5067696;28;20436;-71
2021/10/28 15:40:08;;;;;;;19.47;12.90;;;10.90;99.90;;;;;;5061549;28;20459;-70
2021/10/28 15:43:30;;;;;;;20.67;13.90;;;10.80;99.90;;;;;;5054391;28;20767;-71
2021/10/28 16:23:00;;;;;;;25.80;17.93;;;9.80;99.90;;;;;;5053726;28;20505;-71
2021/10/28 16:25:46;;;;;;;29.67;19.27;;;9.70;99.90;;;;;;5053594;28;20466;-71
2021/10/28 16:28:32;;;;;;;26.37;17.20;;;9.70;99.90;;;;;;5052912;28;20487;-71
2021/10/28 16:31:18;;;;;;;21.13;14.10;;;9.70;99.90;;;;;;5053512;28;20463;-71
2021/10/28 16:34:05;;;;;;;21.90;13.47;;;9.60;99.90;;;;;;5033464;28;20409;-71
2021/10/28 16:36:51;;;;;;;23.80;14.27;;;9.50;99.90;;;;;;5033877;28;20420;-71
2021/10/28 16:39:37;;;;;;;24.27;15.90;;;9.50;99.90;;;;;;5036429;28;20953;-71
2021/10/28 16:42:23;;;;;;;24.47;14.80;;;9.40;99.90;;;;;;5051693;28;20485;-71
2021/10/28 16:45:09;;;;;;;22.70;15.70;;;9.40;99.90;;;;;;5053046;28;20402;-70
2021/10/28 16:47:55;;;;;;;22.57;16.10;;;9.30;99.90;;;;;;5053077;28;20558;-71
2021/10/28 16:50:42;;;;;;;22.73;14.00;;;9.20;99.90;;;;;;5052848;28;20438;-70
2021/10/28 16:53:28;;;;;;;18.60;13.10;;;9.10;99.90;;;;;;5052729;22;20598;-76
2021/10/28 16:56:15;;;;;;;19.50;13.17;;;9.00;99.90;;;;;;5033256;28;20437;-74
2021/10/28 16:59:01;;;;;;;21.73;14.40;;;9.00;99.90;;;;;;5034816;28;20416;-73
2021/10/28 17:01:47;;;;;;;22.63;14.53;;;9.00;99.90;;;;;;5033007;28;20444;-73
2021/10/28 17:04:33;;;;;;;23.50;15.50;;;8.90;99.90;;;;;;5033067;28;20502;-72
2021/10/28 17:07:20;;;;;;;20.73;13.53;;;9.00;99.90;;;;;;5032016;28;20437;-73
2021/10/28 17:10:07;;;;;;;30.23;14.83;;;8.90;99.90;;;;;;5032472;28;20479;-73
2021/10/28 17:12:53;;;;;;;22.00;13.80;;;8.80;99.90;;;;;;5031947;28;20444;-75
2021/10/28 17:15:42;;;;;;;20.40;14.80;;;8.70;99.90;;;;;;5031298;28;20953;-76
2021/10/28 17:18:27;;;;;;;18.80;12.20;;;8.70;99.90;;;;;;5011899;28;20422;-77
2021/10/28 17:21:13;;;;;;;18.63;13.20;;;8.80;99.90;;;;;;5012539;28;21053;-77
2021/10/28 17:24:03;;;;;;;23.53;15.60;;;8.80;99.90;;;;;;5013021;28;20781;-76
2021/10/28 17:26:49;;;;;;;22.50;13.30;;;8.80;99.90;;;;;;5016610;28;20433;-77
2021/10/28 17:29:34;;;;;;;19.73;12.00;;;8.70;99.90;;;;;;5032270;28;20477;-77
2021/10/28 17:32:20;;;;;;;22.07;14.80;;;8.70;99.90;;;;;;5014780;28;20456;-77
2021/10/28 17:35:06;;;;;;;23.93;13.47;;;8.50;99.90;;;;;;5012780;28;20425;-77
2021/10/28 17:38:14;;;;;;;21.60;14.70;;;8.40;99.90;;;;;;5012727;28;20483;-76
2021/10/28 17:41:03;;;;;;;27.20;16.53;;;8.40;99.90;;;;;;5012807;28;21041;-76
2021/10/28 17:43:52;;;;;;;23.10;13.70;;;8.20;99.90;;;;;;5005700;28;20444;-76
2021/10/28 17:46:40;;;;;;;22.30;13.70;;;8.20;99.90;;;;;;4991330;28;20430;-77
2021/10/28 17:49:28;;;;;;;21.83;14.67;;;8.20;99.90;;;;;;4992627;28;20499;-77
2021/10/28 17:52:14;;;;;;;19.93;13.40;;;8.10;99.90;;;;;;4992955;28;20545;-76
2021/10/28 17:55:02;;;;;;;27.07;15.60;;;8.20;99.90;;;;;;4992743;28;20422;-76
2021/10/28 17:57:50;;;;;;;22.80;13.83;;;8.30;99.90;;;;;;5022607;28;20475;-77
2021/10/28 18:00:39;;;;;;;19.40;13.00;;;8.30;99.90;;;;;;5032132;28;20506;-77
2021/10/28 18:03:25;;;;;;;19.17;14.13;;;8.30;99.90;;;;;;5031631;28;20584;-77
2021/10/28 18:06:14;;;;;;;24.17;15.13;;;8.20;99.90;;;;;;5031124;28;20398;-77
2021/10/28 18:09:01;;;;;;;21.40;14.83;;;8.10;99.90;;;;;;5031444;28;20468;-76
2021/10/28 18:11:47;;;;;;;25.17;15.60;;;8.10;99.90;;;;;;5031778;28;20468;-75
2021/10/28 18:14:37;;;;;;;21.60;14.50;;;8.10;99.90;;;;;;5032032;28;20543;-76
2021/10/28 18:17:23;;;;;;;21.77;14.37;;;8.00;99.90;;;;;;5031932;28;20450;-76
2021/10/28 18:20:09;;;;;;;24.33;15.30;;;8.00;99.90;;;;;;5031233;28;20950;-76
2021/10/28 18:22:55;;;;;;;23.40;14.80;;;7.90;99.90;;;;;;5031795;28;20448;-75
2021/10/28 18:25:44;;;;;;;25.50;14.40;;;7.90;99.90;;;;;;5030692;28;20424;-76
2021/10/28 18:28:30;;;;;;;21.80;14.80;;;8.00;99.90;;;;;;5029057;28;20790;-76
2021/10/28 18:31:17;;;;;;;19.80;13.40;;;7.90;99.90;;;;;;4992439;28;20301;-76
2021/10/28 18:34:05;;;;;;;27.30;14.23;;;8.00;99.90;;;;;;4992220;28;20258;-77
2021/10/28 18:36:52;;;;;;;22.70;15.13;;;7.90;99.90;;;;;;4992451;28;20426;-75
2021/10/28 18:39:41;;;;;;;21.00;14.93;;;7.80;99.90;;;;;;4991969;28;20446;-76
2021/10/28 18:42:26;;;;;;;22.92;15.48;;;7.80;99.90;;;;;;4992257;28;20425;-77
2021/10/28 18:45:13;;;;;;;20.17;15.00;;;7.70;99.90;;;;;;4992245;28;20222;-77
2021/10/28 18:48:04;;;;;;;20.90;14.00;;;7.50;99.90;;;;;;4992286;28;20203;-77
2021/10/28 18:50:50;;;;;;;21.63;14.88;;;7.50;99.90;;;;;;4992457;28;20493;-77
2021/10/28 18:53:40;;;;;;;23.77;15.48;;;7.40;99.90;;;;;;4992123;28;20701;-76
2021/10/28 18:56:26;;;;;;;21.40;13.60;;;7.40;99.90;;;;;;4999744;28;20202;-76
2021/10/28 18:59:12;;;;;;;22.05;14.57;;;7.40;99.90;;;;;;5029957;28;20202;-76
2021/10/28 19:01:59;;;;;;;22.90;13.90;;;7.50;99.90;;;;;;5031237;28;20229;-77
2021/10/28 19:04:48;;;;;;;16.58;12.57;;;7.50;99.90;;;;;;5031443;28;20209;-76
2021/10/28 19:07:34;;;;;;;24.48;15.85;;;7.40;99.90;;;;;;5030395;28;20213;-76
2021/10/28 19:10:19;;;;;;;20.50;14.55;;;7.40;99.90;;;;;;5030916;28;20260;-76
2021/10/28 19:13:05;;;;;;;20.52;14.43;;;7.40;99.90;;;;;;5030395;28;20722;-76
2021/10/28 19:15:52;;;;;;;22.80;14.20;;;7.50;99.90;;;;;;5033490;28;20699;-76
2021/10/28 19:18:38;;;;;;;21.05;14.40;;;7.50;99.90;;;;;;5034689;28;20205;-76
2021/10/28 19:21:25;;;;;;;19.30;13.73;;;7.40;99.90;;;;;;5034851;28;20205;-76
2021/10/28 19:24:11;;;;;;;21.60;14.90;;;7.60;99.90;;;;;;5034945;28;20205;-76
2021/10/28 19:26:57;;;;;;;21.60;15.07;;;7.60;99.90;;;;;;5028335;28;20786;-76
2021/10/28 19:29:52;;;;;;;23.13;16.45;;;7.50;99.90;;;;;;5026344;28;20761;-76
2021/10/28 19:32:38;;;;;;;19.48;13.80;;;7.40;99.90;;;;;;5018101;28;20218;-76
2021/10/28 19:35:26;;;;;;;21.65;14.27;;;7.40;99.90;;;;;;4993914;28;20203;-76
2021/10/28 19:38:22;;;;;;;24.50;14.27;;;7.40;99.90;;;;;;4994634;28;20290;-76
2021/10/28 19:41:18;;;;;;;26.52;15.80;;;7.30;99.90;;;;;;4995146;28;20418;-76
2021/10/28 19:47:07;;;;;;;31.93;16.23;;;7.50;99.90;;;;;;4995224;28;20230;-76
2021/10/28 19:49:53;;;;;;;27.10;16.47;;;7.50;99.90;;;;;;4994552;28;20520;-76
2021/10/28 19:52:39;;;;;;;45.17;17.27;;;7.70;99.90;;;;;;4994863;28;20458;-76
2021/10/28 19:55:26;;;;;;;29.13;17.38;;;7.80;99.90;;;;;;4995458;28;20211;-76
2021/10/28 19:58:15;;;;;;;31.70;19.23;;;7.70;99.90;;;;;;5023233;28;20204;-76
2021/10/28 20:01:06;;;;;;;28.17;18.48;;;7.60;99.90;;;;;;4994951;28;20215;-76
2021/10/28 20:04:09;;;;;;;30.17;18.42;;;7.50;99.90;;;;;;4994976;28;20330;-76
2021/10/28 20:07:18;;;;;;;26.23;17.95;;;7.50;99.90;;;;;;4994000;28;20198;-77
2021/10/28 20:13:24;;;;;;;27.38;17.80;;;7.40;99.90;;;;;;4993812;28;21014;-76
2021/10/28 20:22:18;;;;;;;35.13;19.35;;;7.50;99.90;;;;;;4994511;28;20214;-76
2021/10/28 20:25:05;;;;;;;38.55;21.48;;;7.50;99.90;;;;;;4994369;28;20330;-76
2021/10/28 20:27:51;;;;;;;35.53;21.30;;;7.40;99.90;;;;;;5025009;28;20257;-76
2021/10/28 20:30:51;;;;;;;28.77;18.67;;;7.30;99.90;;;;;;5033393;28;20481;-76
2021/10/28 20:33:42;;;;;;;23.50;16.20;;;7.20;99.90;;;;;;5033598;28;20599;-76
2021/10/28 20:39:32;;;;;;;27.95;17.60;;;7.10;99.90;;;;;;5033026;28;20724;-76
2021/10/28 20:42:21;;;;;;;36.20;18.38;;;7.00;99.90;;;;;;5033550;28;20692;-76
2021/10/28 20:45:10;;;;;;;29.83;19.33;;;6.90;99.90;;;;;;5033485;28;20260;-76
2021/10/28 20:47:56;;;;;;;25.63;17.85;;;6.90;99.90;;;;;;5033421;28;20260;-76
2021/10/28 20:50:42;;;;;;;24.35;17.23;;;6.90;99.90;;;;;;5033268;28;20300;-76
2021/10/28 20:53:28;;;;;;;29.33;18.58;;;6.90;99.90;;;;;;5033135;28;20364;-76
2021/10/28 20:56:14;;;;;;;31.77;19.42;;;6.90;99.90;;;;;;5027628;28;20213;-76
2021/10/28 20:58:59;;;;;;;25.27;18.00;;;7.00;99.90;;;;;;5020203;28;20562;-76
2021/10/28 21:01:46;;;;;;;25.10;17.55;;;7.00;99.90;;;;;;5033177;28;20280;-76
2021/10/28 21:04:33;;;;;;;28.88;19.10;;;7.00;99.90;;;;;;5032940;28;20686;-76
2021/10/28 21:07:18;;;;;;;25.15;17.85;;;7.10;99.90;;;;;;5031931;28;20201;-76
2021/10/28 21:10:05;;;;;;;41.85;20.85;;;7.10;99.90;;;;;;5032464;28;20229;-77
2021/10/28 21:12:51;;;;;;;33.97;20.92;;;7.10;99.90;;;;;;5031951;28;20225;-76
2021/10/28 21:15:37;;;;;;;121.30;24.17;;;7.10;99.90;;;;;;5032901;28;20616;-76
2021/10/28 21:18:23;;;;;;;33.42;21.90;;;7.10;99.90;;;;;;5032412;28;20441;-76
2021/10/28 21:21:11;;;;;;;43.78;19.67;;;7.00;99.90;;;;;;5020703;28;20201;-76
2021/10/28 21:23:57;;;;;;;77.25;23.25;;;7.10;99.90;;;;;;4991578;28;20579;-76
2021/10/28 21:26:43;;;;;;;35.00;20.20;;;7.10;99.90;;;;;;5013409;28;20581;-76
2021/10/28 21:29:28;;;;;;;79.20;24.70;;;7.10;99.90;;;;;;5031889;28;20421;-76
2021/10/28 21:32:14;;;;;;;63.17;22.63;;;7.00;99.90;;;;;;5032246;28;20456;-76
2021/10/28 21:35:00;;;;;;;51.65;22.25;;;6.80;99.90;;;;;;5032565;28;20230;-76
2021/10/28 21:37:47;;;;;;;36.53;22.48;;;6.80;99.90;;;;;;5031770;28;20201;-76
2021/10/28 21:40:32;;;;;;;34.97;22.95;;;6.90;99.90;;;;;;5032289;28;20283;-76
2021/10/28 21:43:18;;;;;;;35.08;22.02;;;6.90;99.90;;;;;;5032305;28;20229;-76
2021/10/28 21:46:04;;;;;;;29.80;21.50;;;6.90;99.90;;;;;;5032359;28;20205;-76
2021/10/28 21:48:50;;;;;;;61.55;21.70;;;7.00;99.90;;;;;;5032138;28;20212;-76
2021/10/28 21:51:35;;;;;;;34.35;21.88;;;7.10;99.90;;;;;;5032015;28;20221;-76
2021/10/28 21:54:37;;;;;;;33.25;21.17;;;7.10;99.90;;;;;;5032116;28;20248;-76
2021/10/28 21:57:28;;;;;;;30.58;19.88;;;7.10;99.90;;;;;;5025728;28;20332;-76
2021/10/28 22:00:31;;;;;;;33.45;20.50;;;7.10;99.90;;;;;;5031593;28;20206;-76
2021/10/28 22:24:31;;;;;;;46.25;19.60;;;6.70;99.90;;;;;;5052405;28;20535;-76
2021/10/28 22:27:17;;;;;;;29.45;19.27;;;6.60;99.90;;;;;;5089489;28;20199;-76
2021/10/28 22:30:07;;;;;;;28.02;19.80;;;6.60;99.90;;;;;;5082254;28;20222;-76
2021/10/28 22:32:54;;;;;;;40.00;19.67;;;6.60;99.90;;;;;;5088823;28;20759;-75
2021/10/28 22:35:45;;;;;;;21.80;17.80;;;6.60;99.90;;;;;;5088849;28;20408;-76
2021/10/28 22:38:34;;;;;;;27.55;19.20;;;6.50;99.90;;;;;;5088410;28;20734;-76
2021/10/28 22:41:20;;;;;;;26.80;18.60;;;6.50;99.90;;;;;;5088706;28;20217;-76
2021/10/28 22:44:06;;;;;;;25.05;17.80;;;6.50;99.90;;;;;;5088967;28;20676;-76